Latest Weather Observations for Kalumburu

IDD60801

Issued at 6:01 pm CST Friday 20 October 2017 (issued every 30 minutes, with the page automatically refreshed every 10 minutes)

About weather observations | Map of weather stations | Latest weather observations for NT | Other Formats
Station Details ID: 001019 Name: KALUMBURU Lat: -14.30 Lon: 126.65 Height: 23.0 m
Data from the previous 72 hours. | See also: Recent months at Kalumburu
Date/Time
CST
Temp
°C
App
Temp
°C
Dew
Point
°C
Rel
Hum
%
Delta-T
°C
Wind Press
QNH
hPa
Press
MSL
hPa
Rain since
9am
mm
Dir  Spd
km/h
Gust
km/h
Spd
kts
Gust
kts
20/06:00pm 27.3 30.9 22.3 74 3.4 S 7 9 4 5 1009.5 1009.3 0.0
20/05:30pm 28.8 29.9 19.7 58 5.9 SSE 13 19 7 10 1010.0 1009.8 0.0
20/05:00pm 31.9 32.9 19.5 47 8.1 NE 13 24 7 13 1009.4 1009.2 0.0
20/04:30pm 32.8 32.0 17.0 38 10.1 N 17 26 9 14 1008.5 1008.3 0.0
20/04:00pm 33.4 30.0 15.8 34 11.0 N 28 35 15 19 1008.3 1008.1 0.0
20/03:30pm 31.1 28.8 19.4 49 7.7 NNE 30 48 16 26 1009.3 1009.1 0.0
20/03:12pm 30.5 27.8 16.5 43 8.8 NNE 26 50 14 27 1010.6 1010.4 0.0
20/03:10pm 32.6 30.2 16.4 37 10.2 N 24 50 13 27 1010.8 1010.6 0.0
20/03:00pm 35.0 35.2 20.5 42 9.7 N 20 30 11 16 1009.8 1009.6 0.0
20/02:30pm 35.6 37.4 21.1 43 9.8 NNW 13 20 7 11 1009.8 1009.6 0.0
20/02:00pm 35.0 35.9 20.9 43 9.5 NNW 17 26 9 14 1010.4 1010.2 0.0
20/01:30pm 35.1 36.3 19.1 39 10.6 NNW 11 24 6 13 1011.0 1010.8 0.0
20/01:00pm 34.2 35.4 19.8 42 9.6 NNE 13 22 7 12 1011.6 1011.4 0.0
20/12:30pm 34.0 36.3 21.4 47 8.5 N 11 19 6 10 1012.1 1011.9 0.0
20/12:00pm 33.9 36.8 21.7 49 8.3 NNE 9 19 5 10 1012.5 1012.3 0.0
20/11:30am 33.0 35.1 20.9 49 8.1 NNW 11 20 6 11 1012.7 1012.5 0.0
20/11:00am 32.5 35.6 22.9 57 6.6 NNW 11 20 6 11 1013.0 1012.8 0.0
20/10:30am 31.7 35.3 23.0 60 6.0 WNW 9 13 5 7 1013.0 1012.8 0.0
20/10:00am 30.3 35.2 24.4 70 4.1 S 6 9 3 5 1013.3 1013.1 0.0
20/09:30am 29.9 35.5 24.8 74 3.6 S 4 9 2 5 1013.5 1013.3 0.0
20/09:00am 29.6 35.2 25.8 80 2.7 SSW 7 9 4 5 1012.6 1012.4 0.0
20/08:30am 27.4 33.5 25.0 87 1.7 NNE 2 7 1 4 1012.2 1012.0 0.0
20/08:00am 27.0 33.3 24.8 88 1.5 CALM 0 0 0 0 1012.0 1011.8 0.0
20/07:30am 26.7 32.8 24.5 88 1.5 CALM 0 0 0 0 1011.4 1011.2 0.0
20/07:00am 26.1 32.0 24.1 89 1.4 CALM 0 0 0 0 1011.3 1011.1 0.0
20/06:30am 26.1 31.2 24.1 89 1.4 SE 4 7 2 4 1011.1 1010.9 0.0
20/06:00am 25.8 30.5 24.0 90 1.2 ESE 6 7 3 4 1010.6 1010.4 0.0
20/05:30am 25.9 30.7 24.1 90 1.2 SE 6 7 3 4 1010.0 1009.8 0.0
20/05:00am 25.6 31.3 23.7 89 1.3 CALM 0 0 0 0 1009.6 1009.4 0.0
20/04:30am 25.6 31.3 23.7 89 1.3 CALM 0 0 0 0 1009.4 1009.2 0.0
20/04:00am 25.7 31.3 23.6 88 1.4 CALM 0 0 0 0 1009.3 1009.1 0.0
20/03:30am 25.9 31.6 23.8 88 1.4 CALM 0 0 0 0 1009.3 1009.1 0.0
20/03:00am 26.0 31.7 23.7 87 1.6 CALM 0 0 0 0 1009.2 1009.0 0.0
20/02:30am 26.1 31.8 23.8 87 1.6 CALM 0 0 0 0 1009.3 1009.1 0.0
20/02:00am 26.4 32.0 23.5 84 2.0 CALM 0 0 0 0 1009.6 1009.4 0.0
20/01:30am 26.8 32.2 23.3 81 2.4 CALM 0 4 0 2 1009.9 1009.7 0.0
20/01:00am 27.7 32.9 23.5 78 2.9 WNW 2 7 1 4 1010.0 1009.8 0.0
20/12:30am 28.1 32.4 23.7 77 3.0 NW 7 9 4 5 1010.3 1010.1 0.0
20/12:00am 28.3 32.8 23.7 76 3.2 WNW 6 9 3 5 1010.6 1010.4 0.0
 
Date/Time
CST
Temp
°C
App
Temp
°C
Dew
Point
°C
Rel
Hum
%
Delta-T
°C
Wind Press
QNH
hPa
Press
MSL
hPa
Rain since
9am
mm
Dir  Spd
km/h
Gust
km/h
Spd
kts
Gust
kts
19/11:30pm 28.6 32.6 23.7 75 3.4 NW 9 15 5 8 1010.8 1010.6 0.0
19/11:00pm 28.7 33.1 23.8 75 3.4 NNW 7 13 4 7 1010.9 1010.7 0.0
19/10:30pm 28.7 32.8 24.0 76 3.3 NNW 9 15 5 8 1010.8 1010.6 0.0
19/10:00pm 28.9 32.8 24.2 76 3.3 NNW 11 17 6 9 1010.6 1010.4 0.0
19/09:30pm 28.9 32.3 24.0 75 3.4 NNW 13 19 7 10 1010.2 1010.0 0.0
19/09:00pm 29.0 32.9 24.3 76 3.3 NNW 11 17 6 9 1009.9 1009.7 0.0
19/08:30pm 29.1 33.5 24.4 76 3.3 NNW 9 15 5 8 1009.4 1009.2 0.0
19/08:00pm 29.1 32.6 24.2 75 3.4 N 13 19 7 10 1009.0 1008.8 0.0
19/07:30pm 29.3 32.3 24.0 73 3.7 N 15 20 8 11 1008.6 1008.4 0.0
19/07:00pm 29.5 32.0 24.4 74 3.6 NNW 19 26 10 14 1008.2 1008.0 0.0
19/06:30pm 30.1 32.5 24.3 71 4.0 N 19 28 10 15 1007.6 1007.4 0.0
19/06:00pm 30.8 31.6 23.2 64 5.2 N 24 35 13 19 1007.1 1006.9 0.0
19/05:30pm 31.2 31.5 23.0 61 5.6 N 26 37 14 20 1006.6 1006.4 0.0
19/05:00pm 30.9 32.8 23.5 64 5.1 NNW 19 28 10 15 1006.8 1006.6 0.0
19/04:30pm 31.3 32.9 23.9 64 5.2 NNW 22 32 12 17 1006.9 1006.7 0.0
19/04:00pm 31.9 34.5 24.0 63 5.5 NNW 17 26 9 14 1007.4 1007.2 0.0
19/03:30pm 30.7 32.8 24.1 68 4.6 N 20 33 11 18 1007.0 1006.8 0.0
19/03:00pm 31.7 32.3 23.5 62 5.7 N 26 37 14 20 1006.9 1006.7 0.0
19/02:30pm 33.5 35.2 24.7 60 6.2 N 24 39 13 21 1007.3 1007.1 0.0
19/02:00pm 33.4 35.2 24.3 59 6.4 N 22 30 12 16 1007.5 1007.3 0.0
19/01:30pm 34.1 36.9 25.2 59 6.3 N 20 32 11 17 1008.0 1007.8 0.0
19/01:00pm 34.0 36.5 24.8 58 6.5 NNW 20 28 11 15 1008.1 1007.9 0.0
19/12:30pm 33.8 36.5 24.1 57 6.8 N 17 24 9 13 1008.5 1008.3 0.0
19/12:00pm 33.8 37.2 25.2 60 6.1 NNW 17 24 9 13 1008.7 1008.5 0.0
19/11:30am 33.2 36.2 24.7 61 6.0 N 17 24 9 13 1008.6 1008.4 0.0
19/11:00am 33.0 36.1 24.2 60 6.2 NNW 15 20 8 11 1008.7 1008.5 0.0
19/10:30am 32.9 36.5 24.4 61 6.0 N 13 19 7 10 1008.9 1008.7 0.0
19/10:00am 32.8 37.8 24.8 62 5.6 N 7 15 4 8 1009.3 1009.1 0.0
19/09:30am 31.6 36.6 24.5 66 5.0 NW 6 11 3 6 1009.1 1008.9 0.0
19/09:00am 30.6 35.3 24.0 68 4.6 NNW 6 11 3 6 1009.1 1008.9 0.0
19/08:30am 29.5 34.4 24.4 74 3.6 N 6 9 3 5 1008.6 1008.4 0.0
19/08:00am 29.2 35.0 24.5 76 3.3 SSE 2 9 1 5 1008.5 1008.3 0.0
19/07:30am 28.5 35.3 25.5 84 2.1 CALM 0 0 0 0 1008.5 1008.3 0.0
19/07:00am 27.2 33.5 24.8 87 1.7 CALM 0 0 0 0 1008.1 1007.9 0.0
19/06:30am 27.3 32.8 24.6 85 1.9 WNW 4 7 2 4 1007.8 1007.6 0.0
19/06:00am 27.2 33.5 24.7 86 1.7 CALM 0 0 0 0 1007.7 1007.5 0.0
19/05:30am 27.4 33.7 24.8 86 1.8 CALM 0 0 0 0 1007.3 1007.1 0.0
19/05:00am 27.6 34.1 25.0 86 1.8 CALM 0 0 0 0 1007.3 1007.1 0.0
19/04:30am 27.5 33.5 24.9 86 1.8 SSE 2 9 1 5 1006.8 1006.6 0.0
19/04:00am 27.4 33.7 24.7 85 1.9 CALM 0 0 0 0 1006.1 1005.9 0.0
19/03:30am 27.4 33.7 24.7 85 1.9 CALM 0 0 0 0 1006.2 1006.0 0.0
19/03:00am 27.5 32.3 24.4 83 2.2 N 7 11 4 6 1006.1 1005.9 0.0
19/02:30am 27.6 32.5 24.6 84 2.1 NW 7 13 4 7 1006.2 1006.0 0.0
19/02:00am 27.6 32.6 24.8 85 2.0 WNW 7 11 4 6 1006.3 1006.1 0.0
19/01:30am 27.0 32.5 24.1 84 2.0 W 2 7 1 4 1006.5 1006.3 0.0
19/01:00am 27.4 32.7 24.3 83 2.1 NW 4 6 2 3 1007.0 1006.8 0.0
19/12:30am 27.9 32.9 24.5 82 2.4 WNW 6 9 3 5 1007.4 1007.2 0.0
19/12:00am 27.7 32.6 24.3 82 2.4 NW 6 7 3 4 1007.7 1007.5 0.0
 
Date/Time
CST
Temp
°C
App
Temp
°C
Dew
Point
°C
Rel
Hum
%
Delta-T
°C
Wind Press
QNH
hPa
Press
MSL
hPa
Rain since
9am
mm
Dir  Spd
km/h
Gust
km/h
Spd
kts
Gust
kts
18/11:30pm 28.4 33.3 24.6 80 2.7 NW 7 11 4 6 1007.8 1007.6 0.0
18/11:00pm 28.4 33.2 24.4 79 2.8 NNW 7 9 4 5 1008.1 1007.9 0.0
18/10:30pm 28.9 33.8 24.7 78 2.9 NW 7 9 4 5 1008.0 1007.8 0.0
18/10:00pm 28.8 33.9 24.6 78 2.9 N 6 7 3 4 1007.8 1007.6 0.0
18/09:30pm 29.4 34.3 24.7 76 3.3 NW 7 11 4 6 1007.3 1007.1 0.0
18/09:00pm 29.8 34.4 24.7 74 3.6 NNW 9 13 5 7 1007.0 1006.8 0.0
18/08:30pm 30.3 35.2 24.4 70 4.1 WNW 6 9 3 5 1006.7 1006.5 0.0
18/08:00pm 31.0 35.4 24.4 68 4.6 NW 9 13 5 7 1006.2 1006.0 0.0
18/07:30pm 30.6 35.2 25.9 76 3.4 NNE 13 20 7 11 1005.6 1005.4 0.0
18/07:00pm 31.0 35.9 25.8 74 3.7 NNE 11 19 6 10 1005.4 1005.2 0.0
18/06:30pm 31.3 35.7 25.6 71 4.1 NE 13 20 7 11 1004.9 1004.7 0.0
18/06:00pm 31.6 36.3 25.0 68 4.7 N 9 15 5 8 1004.4 1004.2 0.0
18/05:30pm 31.4 35.5 24.5 67 4.8 N 11 15 6 8 1004.0 1003.8 0.0
18/05:00pm 31.9 32.7 19.9 49 7.9 NNW 15 24 8 13 1003.9 1003.7 0.0
18/04:30pm 31.7 31.0 20.3 50 7.6 NNE 24 41 13 22 1004.1 1003.9 0.0
18/04:11pm 33.0 32.6 22.4 53 7.3 NNE 28 46 15 25 1003.7 1003.5 0.0
18/04:00pm 35.1 37.6 24.7 55 7.4 N 20 28 11 15 1003.1 1002.9 0.0
18/03:30pm 36.6 38.1 23.1 45 9.4 N 20 28 11 15 1003.2 1003.0 0.0
18/03:00pm 37.9 39.5 22.8 42 10.5 NW 19 26 10 14 1003.4 1003.2 0.0
18/02:30pm 38.0 39.7 22.4 40 10.8 NNW 17 28 9 15 1004.0 1003.8 0.0
18/02:00pm 38.2 39.3 18.1 30 13.2 SSW 9 15 5 8 1004.8 1004.6 0.0
18/01:30pm 37.8 39.4 19.2 33 12.4 S 9 15 5 8 1005.2 1005.0 0.0
18/01:00pm 37.1 39.5 20.8 38 11.0 S 9 15 5 8 1005.7 1005.5 0.0
18/12:30pm 36.9 38.8 20.6 38 11.0 S 11 17 6 9 1006.3 1006.1 0.0
18/12:00pm 36.1 39.4 21.9 43 9.7 S 7 11 4 6 1006.8 1006.6 0.0
18/11:30am 34.7 37.9 22.4 48 8.5 SSE 9 13 5 7 1007.4 1007.2 0.0
18/11:00am 33.4 37.4 22.8 53 7.3 S 6 9 3 5 1007.8 1007.6 0.0
18/10:30am 33.3 37.4 23.3 55 6.9 NE 7 11 4 6 1008.1 1007.9 -
18/10:00am 31.6 36.1 23.7 63 5.5 WNW 6 9 3 5 1008.4 1008.2 -
18/09:30am 30.8 35.3 23.7 66 4.9 WNW 6 9 3 5 1008.6 1008.4 -
18/09:00am 29.9 34.7 24.1 71 4.0 WNW 6 9 3 5 1008.7 1008.5 -
18/08:30am 29.0 33.7 23.9 74 3.5 NNW 6 9 3 5 1008.6 1008.4 -
18/08:00am 28.0 32.9 24.4 81 2.5 N 6 7 3 4 1008.4 1008.2 -
18/07:30am 26.8 33.4 25.2 91 1.1 CALM 0 0 0 0 1008.0 1007.8 -
18/07:00am 25.6 31.3 23.8 90 1.2 CALM 0 0 0 0 1007.7 1007.5 -
18/06:30am 25.5 31.2 23.7 90 1.2 CALM 0 0 0 0 1007.4 1007.2 29.4
18/06:00am 25.7 31.5 23.9 90 1.2 CALM 0 0 0 0 1006.9 1006.7 29.4
18/05:30am 25.6 31.0 23.8 90 1.2 SSE 2 7 1 4 1006.7 1006.5 29.4
18/05:00am 25.8 31.6 24.0 90 1.2 CALM 0 0 0 0 1006.6 1006.4 29.4
18/04:30am 25.9 31.8 24.1 90 1.2 CALM 0 0 0 0 1006.2 1006.0 29.4
18/04:00am 25.9 31.0 24.1 90 1.2 ESE 4 7 2 4 1005.8 1005.6 29.2
18/03:30am 26.0 32.0 24.2 90 1.2 CALM 0 6 0 3 1005.9 1005.7 29.2
18/03:00am 26.0 32.0 24.2 90 1.2 CALM 0 6 0 3 1006.1 1005.9 29.2
18/02:30am 25.9 31.8 24.1 90 1.2 CALM 0 7 0 4 1006.2 1006.0 29.2
18/02:00am 25.4 31.0 23.6 90 1.2 CALM 0 0 0 0 1006.3 1006.1 29.2
18/01:30am 25.7 31.4 23.7 89 1.4 CALM 0 0 0 0 1006.6 1006.4 29.2
18/01:00am 25.5 31.1 23.6 89 1.3 CALM 0 0 0 0 1007.0 1006.8 29.2
18/12:30am 25.2 29.5 23.3 89 1.3 ESE 6 7 3 4 1007.2 1007.0 29.2
18/12:00am 25.3 29.7 23.4 89 1.3 ESE 6 9 3 5 1007.5 1007.3 29.2
 
Date/Time
CST
Temp
°C
App
Temp
°C
Dew
Point
°C
Rel
Hum
%
Delta-T
°C
Wind Press
QNH
hPa
Press
MSL
hPa
Rain since
9am
mm
Dir  Spd
km/h
Gust
km/h
Spd
kts
Gust
kts
17/11:30pm 25.3 30.8 23.4 89 1.3 CALM 0 0 0 0 1007.6 1007.4 29.2
17/11:00pm 25.0 30.2 22.9 88 1.4 CALM 0 0 0 0 1007.8 1007.6 29.2
17/10:30pm 25.3 30.7 23.2 88 1.4 CALM 0 0 0 0 1007.9 1007.7 29.2
17/10:00pm 25.0 30.1 22.7 87 1.6 CALM 0 0 0 0 1007.8 1007.6 29.2
17/09:30pm 25.1 29.4 22.6 86 1.7 ENE 4 9 2 5 1007.4 1007.2 29.2
17/09:00pm 24.7 29.2 22.2 86 1.7 ENE 2 7 1 4 1007.1 1006.9 29.2
17/08:30pm 24.9 28.7 22.4 86 1.7 NE 6 9 3 5 1006.8 1006.6 29.2
17/08:00pm 24.5 28.1 22.0 86 1.7 SSW 6 9 3 5 1006.4 1006.2 29.2

Other Formats:

Comma delimited format used in spreadsheet applications
http://www.bom.gov.au/fwo/IDD60801/IDD60801.94100.axf

JavaScript Object Notation format (JSON) in row-major order
http://www.bom.gov.au/fwo/IDD60801/IDD60801.94100.json